createdAt,value
2023-09-16T00:01:07.061Z,91999.75
2023-09-16T00:03:36.412Z,91991.38
2023-09-16T00:06:05.445Z,91987.72
2023-09-16T00:08:35.620Z,91988.56
2023-09-16T00:11:02.339Z,91993.09
2023-09-16T00:13:29.204Z,91985.78
2023-09-16T00:15:55.976Z,91987.72
2023-09-16T00:18:22.806Z,91976.50
2023-09-16T00:20:50.279Z,91979.25
2023-09-16T00:23:17.553Z,91979.19
2023-09-16T00:25:44.306Z,91970.97
2023-09-16T00:28:11.039Z,91967.63
2023-09-16T00:30:37.725Z,91969.78
2023-09-16T00:33:04.852Z,91978.06
2023-09-16T00:35:31.753Z,91973.88
2023-09-16T00:37:58.548Z,91973.03
2023-09-16T00:40:25.214Z,91979.69
2023-09-16T00:42:51.899Z,91978.38
2023-09-16T00:45:18.661Z,91980.56
2023-09-16T00:47:45.397Z,91985.44
2023-09-16T00:50:15.090Z,91990.94
2023-09-16T00:52:56.810Z,91995.38
2023-09-16T00:55:23.638Z,91987.00
2023-09-16T00:57:51.826Z,91979.78
2023-09-16T01:00:19.219Z,91989.75
2023-09-16T01:02:46.008Z,91985.41
2023-09-16T01:05:16.700Z,91979.19
2023-09-16T01:07:43.789Z,91989.38
2023-09-16T01:10:13.162Z,91986.94
2023-09-16T01:12:40.091Z,91980.72
2023-09-16T01:15:07.560Z,91987.28
2023-09-16T01:18:13.767Z,91982.53
2023-09-16T01:20:40.486Z,91982.78
2023-09-16T01:23:07.993Z,91991.22
2023-09-16T01:25:34.770Z,91995.88
2023-09-16T01:28:01.454Z,91981.94
2023-09-16T01:30:28.953Z,91985.38
2023-09-16T01:33:03.909Z,91983.47
2023-09-16T01:35:30.979Z,91979.94
2023-09-16T01:37:57.595Z,91982.38
2023-09-16T01:40:24.899Z,91979.94
2023-09-16T01:42:51.705Z,91980.84
2023-09-16T01:45:18.416Z,91981.94
2023-09-16T01:47:46.043Z,91975.06
2023-09-16T01:50:13.076Z,91966.66
2023-09-16T02:04:16.928Z,91961.59
2023-09-16T02:06:45.560Z,91964.41
2023-09-16T02:09:12.922Z,91956.13
2023-09-16T02:11:39.919Z,91961.63
2023-09-16T02:14:08.947Z,91953.56
2023-09-16T02:16:35.852Z,91947.78
2023-09-16T02:19:02.750Z,91959.78
2023-09-16T02:21:29.576Z,91952.63
2023-09-16T02:23:56.338Z,91957.84
2023-09-16T02:26:23.072Z,91953.16
2023-09-16T02:28:50.096Z,91952.38
2023-09-16T02:31:17.368Z,91955.97
2023-09-16T02:33:44.076Z,91944.03
2023-09-16T02:36:10.861Z,91944.28
2023-09-16T02:38:37.599Z,91944.16
2023-09-16T02:41:05.266Z,91933.59
2023-09-16T02:43:32.362Z,91939.69
2023-09-16T02:45:59.191Z,91937.56
2023-09-16T02:48:26.036Z,91940.44
2023-09-16T02:50:52.774Z,91945.69
2023-09-16T03:16:15.688Z,91981.25
2023-09-16T03:18:46.840Z,91988.34
2023-09-16T03:21:15.000Z,91986.81
2023-09-16T03:23:42.224Z,91987.56
2023-09-16T03:26:09.311Z,91996.31
2023-09-16T03:28:36.299Z,92002.41
2023-09-16T03:31:03.169Z,92001.19
2023-09-16T03:33:29.872Z,92004.25
2023-09-16T03:35:56.526Z,92008.69
2023-09-16T03:38:24.993Z,92015.31
2023-09-16T03:40:51.992Z,92006.72
2023-09-16T03:43:19.229Z,92016.13
2023-09-16T03:45:45.931Z,92015.66
2023-09-16T03:48:12.624Z,92019.53
2023-09-16T03:50:39.405Z,92019.63
2023-09-16T03:53:11.338Z,92015.31
2023-09-16T03:55:38.362Z,92019.31
2023-09-16T03:58:05.025Z,92020.63
2023-09-16T04:00:31.776Z,92019.97
2023-09-16T04:02:58.516Z,92022.75
2023-09-16T04:05:25.412Z,92018.22
2023-09-16T04:07:52.059Z,92028.72
2023-09-16T04:10:18.883Z,92034.69
2023-09-16T04:12:45.676Z,92034.56
2023-09-16T04:15:12.454Z,92038.09
2023-09-16T04:17:39.202Z,92035.66
2023-09-16T04:20:07.468Z,92035.69
2023-09-16T04:22:34.370Z,92027.06
2023-09-16T04:25:01.235Z,92037.91
2023-09-16T04:27:27.935Z,92035.25
2023-09-16T04:29:54.631Z,92046.63
2023-09-16T04:32:21.401Z,92059.03
2023-09-16T04:34:48.433Z,92067.53
2023-09-16T04:37:17.111Z,92065.94
2023-09-16T04:39:44.189Z,92065.50
2023-09-16T04:42:10.958Z,92062.19
2023-09-16T04:44:40.282Z,92065.53
2023-09-16T04:47:11.696Z,92069.59
2023-09-16T04:49:38.307Z,92062.28
2023-09-16T04:52:05.554Z,92059.91
2023-09-16T04:54:37.147Z,92069.31
2023-09-16T04:57:04.082Z,92063.25
2023-09-16T04:59:33.955Z,92061.34
2023-09-16T05:02:00.890Z,92055.81
2023-09-16T05:04:27.827Z,92062.88
2023-09-16T05:06:54.772Z,92067.31
2023-09-16T05:09:22.771Z,92066.53
2023-09-16T05:11:49.464Z,92067.09
2023-09-16T05:14:16.887Z,92057.69
2023-09-16T05:16:43.696Z,92061.78
2023-09-16T05:19:10.469Z,92082.81
2023-09-16T05:21:37.461Z,92086.78
2023-09-16T05:24:04.428Z,92083.97
2023-09-16T05:26:32.158Z,92092.28
2023-09-16T05:28:58.899Z,92090.53
2023-09-16T05:31:25.903Z,92086.09
2023-09-16T05:33:52.699Z,92099.59
2023-09-16T05:36:19.953Z,92097.25
2023-09-16T05:38:46.770Z,92099.16
2023-09-16T05:41:13.509Z,92095.38
2023-09-16T05:43:40.182Z,92097.78
2023-09-16T05:46:07.658Z,92108.88
2023-09-16T05:48:34.678Z,92122.00
2023-09-16T05:51:01.591Z,92122.94
2023-09-16T05:53:28.738Z,92123.22
2023-09-16T05:55:55.459Z,92123.00
2023-09-16T05:58:22.227Z,92119.53
2023-09-16T06:00:56.418Z,92115.69
2023-09-16T06:03:23.200Z,92122.75
2023-09-16T06:30:04.266Z,92149.25
2023-09-16T06:32:30.898Z,92151.66
2023-09-16T06:34:57.554Z,92152.28
2023-09-16T06:37:24.437Z,92149.84
2023-09-16T06:39:51.137Z,92139.00
2023-09-16T06:42:17.783Z,92137.47
2023-09-16T06:44:44.529Z,92145.00
2023-09-16T06:47:11.274Z,92122.84
2023-09-16T06:49:37.930Z,92123.56
2023-09-16T06:52:05.114Z,92118.59
2023-09-16T07:26:31.329Z,92095.13
2023-09-16T07:28:58.420Z,92089.44
2023-09-16T07:31:25.173Z,92091.25
2023-09-16T07:33:52.656Z,92100.31
2023-09-16T07:36:19.369Z,92110.63
2023-09-16T07:38:46.127Z,92126.19
2023-09-16T07:41:12.876Z,92120.69
2023-09-16T07:43:39.713Z,92123.34
2023-09-16T07:46:06.438Z,92117.38
2023-09-16T07:48:33.737Z,92132.38
2023-09-16T07:51:00.544Z,92135.25
2023-09-16T07:53:27.346Z,92139.66
2023-09-16T07:55:54.106Z,92154.41
2023-09-16T07:58:20.906Z,92154.69
2023-09-16T08:00:47.810Z,92148.66
2023-09-16T08:03:14.738Z,92162.38
2023-09-16T08:05:41.534Z,92155.38
2023-09-16T08:20:43.414Z,92135.72
2023-09-16T08:23:14.896Z,92135.34
2023-09-16T08:25:41.622Z,92135.78
2023-09-16T08:28:08.425Z,92142.91
2023-09-16T08:30:35.186Z,92131.81
2023-09-16T08:33:01.985Z,92132.34
2023-09-16T08:35:28.823Z,92134.75
2023-09-16T08:37:56.201Z,92127.16
2023-09-16T08:40:23.307Z,92130.53
2023-09-16T08:42:54.941Z,92127.31
2023-09-16T08:45:21.685Z,92118.69
2023-09-16T08:47:54.068Z,92119.91
2023-09-16T08:50:22.761Z,92127.09
2023-09-16T08:52:54.787Z,92123.13
2023-09-16T08:55:22.068Z,92125.56
2023-09-16T08:58:20.833Z,92128.38
2023-09-16T09:00:47.799Z,92129.63
2023-09-16T09:03:14.724Z,92134.28
2023-09-16T09:05:41.459Z,92144.88
2023-09-16T09:08:10.295Z,92139.13
2023-09-16T09:10:41.300Z,92135.34
2023-09-16T09:13:12.727Z,92135.75
2023-09-16T09:15:40.742Z,92131.06
2023-09-16T09:18:07.869Z,92127.28
2023-09-16T09:20:35.332Z,92134.91
2023-09-16T09:23:02.746Z,92143.53
2023-09-16T09:25:29.892Z,92143.53
2023-09-16T09:27:59.160Z,92137.34
2023-09-16T09:30:28.444Z,92130.31
2023-09-16T09:32:59.250Z,92122.09
2023-09-16T09:35:30.125Z,92130.44
2023-09-16T09:37:57.479Z,92124.53
2023-09-16T09:40:24.372Z,92125.09
2023-09-16T09:42:52.586Z,92132.16
2023-09-16T09:45:20.552Z,92133.25
2023-09-16T09:47:48.414Z,92129.25
2023-09-16T09:50:16.600Z,92132.47
2023-09-16T09:52:47.903Z,92122.06
2023-09-16T09:55:24.537Z,92125.88
2023-09-16T09:57:52.476Z,92126.84
2023-09-16T10:00:20.388Z,92119.03
2023-09-16T10:02:49.172Z,92121.34
2023-09-16T10:05:16.802Z,92132.63
2023-09-16T10:07:46.632Z,92139.34
2023-09-16T10:10:19.795Z,92134.88
2023-09-16T10:12:46.728Z,92147.97
2023-09-16T10:15:13.969Z,92144.03
2023-09-16T10:17:41.943Z,92143.44
2023-09-16T10:20:11.795Z,92138.69
2023-09-16T10:22:42.136Z,92138.78
2023-09-16T10:25:09.669Z,92148.59
2023-09-16T10:27:40.796Z,92146.41
2023-09-16T10:30:07.960Z,92159.47
2023-09-16T10:32:34.805Z,92149.84
2023-09-16T10:35:03.990Z,92151.31
2023-09-16T10:37:30.754Z,92146.13
2023-09-16T10:39:57.568Z,92147.50
2023-09-16T10:42:24.257Z,92144.13
2023-09-16T10:44:50.955Z,92146.59
2023-09-16T10:47:17.965Z,92141.97
2023-09-16T10:49:47.986Z,92131.97
2023-09-16T10:52:17.593Z,92124.47
2023-09-16T10:54:53.003Z,92129.97
2023-09-16T10:57:27.009Z,92120.16
2023-09-16T10:59:53.815Z,92123.50
2023-09-16T11:02:45.715Z,92114.75
2023-09-16T11:05:12.476Z,92110.94
2023-09-16T11:07:39.201Z,92111.78
2023-09-16T11:10:06.701Z,92109.38
2023-09-16T11:12:33.400Z,92107.50
2023-09-16T11:15:05.849Z,92104.75
2023-09-16T11:17:32.770Z,92105.03
2023-09-16T11:20:14.590Z,92101.56
2023-09-16T11:22:48.193Z,92093.91
2023-09-16T11:25:16.222Z,92088.19
2023-09-16T11:27:43.110Z,92091.94
2023-09-16T11:30:14.037Z,92082.97
2023-09-16T11:32:42.159Z,92082.81
2023-09-16T11:35:09.991Z,92088.94
2023-09-16T11:37:36.873Z,92075.88
2023-09-16T11:40:03.810Z,92075.81
2023-09-16T11:42:31.476Z,92075.69
2023-09-16T11:44:58.880Z,92074.97
2023-09-16T11:47:30.812Z,92072.13
2023-09-16T11:49:57.493Z,92070.78
2023-09-16T11:52:25.441Z,92075.06
2023-09-16T11:54:52.957Z,92070.47
2023-09-16T11:57:19.704Z,92060.94
2023-09-16T11:59:47.407Z,92055.97
2023-09-16T12:02:14.092Z,92054.75
2023-09-16T12:04:40.978Z,92049.38
2023-09-16T12:07:07.758Z,92050.53
2023-09-16T12:09:34.602Z,92053.09
2023-09-16T12:12:02.105Z,92050.91
2023-09-16T12:14:29.927Z,92042.03
2023-09-16T12:16:57.071Z,92044.72
2023-09-16T12:19:23.873Z,92036.06
2023-09-16T12:21:50.782Z,92047.06
2023-09-16T12:24:21.990Z,92040.94
2023-09-16T12:26:49.385Z,92037.06
2023-09-16T12:29:16.083Z,92042.41
2023-09-16T12:31:43.894Z,92036.22
2023-09-16T12:34:19.829Z,92031.59
2023-09-16T12:36:53.009Z,92030.94
2023-09-16T12:39:23.666Z,92034.00
2023-09-16T12:42:04.561Z,92025.47
2023-09-16T12:44:39.036Z,92025.28
2023-09-16T12:47:05.965Z,92022.06
2023-09-16T12:49:32.791Z,92016.63
2023-09-16T12:51:59.593Z,92011.19
2023-09-16T12:54:26.262Z,92016.38
2023-09-16T12:56:53.324Z,92007.38
2023-09-16T12:59:20.284Z,92008.00
2023-09-16T13:01:47.120Z,92003.56
2023-09-16T13:04:13.992Z,92005.28
2023-09-16T13:06:40.689Z,92002.94
2023-09-16T13:09:07.763Z,92002.22
2023-09-16T13:11:34.934Z,92003.69
2023-09-16T13:14:01.611Z,91994.50
2023-09-16T13:16:29.358Z,92008.00
2023-09-16T13:18:56.205Z,92006.41
2023-09-16T13:21:32.766Z,92011.88
2023-09-16T13:24:01.819Z,92013.25
2023-09-16T13:26:28.548Z,92010.50
2023-09-16T13:28:59.536Z,92009.63
2023-09-16T13:31:26.900Z,92003.97
2023-09-16T13:34:01.327Z,92004.81
2023-09-16T13:36:30.471Z,92012.56
2023-09-16T13:38:57.274Z,92006.91
2023-09-16T13:41:25.813Z,91999.69
2023-09-16T13:43:53.152Z,92002.44
2023-09-16T13:46:20.008Z,91999.88
2023-09-16T13:48:48.955Z,91996.72
2023-09-16T13:51:16.208Z,91999.88
2023-09-16T13:53:43.225Z,91997.56
2023-09-16T13:56:11.417Z,91998.47
2023-09-16T13:58:38.738Z,91996.38
2023-09-16T14:01:05.777Z,91990.75
2023-09-16T14:03:33.133Z,91996.31
2023-09-16T14:06:00.584Z,91998.66
2023-09-16T14:08:27.325Z,91996.34
2023-09-16T14:10:54.148Z,91992.50
2023-09-16T14:13:20.919Z,91994.81
2023-09-16T14:15:47.748Z,91992.06
2023-09-16T14:18:15.845Z,91994.72
2023-09-16T14:20:42.604Z,92003.19
2023-09-16T14:23:09.280Z,92003.13
2023-09-16T14:25:36.211Z,92000.97
2023-09-16T14:28:04.055Z,92001.59
2023-09-16T14:30:33.092Z,91990.72
2023-09-16T14:33:00.086Z,92002.63
2023-09-16T14:35:27.023Z,91987.69
2023-09-16T14:37:54.671Z,92000.06
2023-09-16T14:40:21.780Z,92000.81
2023-09-16T14:42:48.531Z,91995.09
2023-09-16T14:45:15.339Z,92001.31
2023-09-16T14:47:44.225Z,92001.72
2023-09-16T14:50:12.081Z,91999.78
2023-09-16T14:52:39.870Z,91993.25
2023-09-16T14:55:09.691Z,91989.44
2023-09-16T14:57:37.604Z,91990.97
2023-09-16T15:00:07.982Z,91988.28
2023-09-16T15:02:35.017Z,91990.88
2023-09-16T15:05:01.835Z,91993.97
2023-09-16T15:07:28.616Z,91991.22
2023-09-16T15:09:55.399Z,91999.97
2023-09-16T15:12:22.095Z,91997.69
2023-09-16T15:14:49.763Z,92001.59
2023-09-16T15:17:16.590Z,92000.09
2023-09-16T15:19:43.319Z,92000.41
2023-09-16T15:22:10.023Z,91996.13
2023-09-16T15:24:36.828Z,92001.38
2023-09-16T15:27:03.702Z,91996.28
2023-09-16T15:29:30.535Z,92001.75
2023-09-16T15:32:16.382Z,91998.59
2023-09-16T15:34:44.255Z,92008.81
2023-09-16T15:37:11.084Z,91995.72
2023-09-16T15:39:37.987Z,91999.81
2023-09-16T15:42:04.844Z,91993.22
2023-09-16T15:44:31.567Z,91997.41
2023-09-16T15:46:58.911Z,91995.81
2023-09-16T15:49:25.795Z,91998.97
2023-09-16T15:51:52.550Z,91996.00
2023-09-16T15:54:19.888Z,91993.56
2023-09-16T15:56:46.530Z,91998.59
2023-09-16T15:59:13.390Z,92001.41
2023-09-16T16:01:41.502Z,92002.00
2023-09-16T16:04:08.385Z,92002.31
2023-09-16T16:06:35.203Z,92006.59
2023-09-16T16:09:01.991Z,92007.72
2023-09-16T16:11:28.767Z,92011.22
2023-09-16T16:13:56.833Z,92006.91
2023-09-16T16:16:24.217Z,92000.59
2023-09-16T16:18:52.519Z,91995.47
2023-09-16T16:21:19.253Z,92004.81
2023-09-16T16:23:46.035Z,92000.91
2023-09-16T16:26:12.633Z,92000.06
2023-09-16T16:28:39.550Z,92019.78
2023-09-16T16:31:06.533Z,92014.47
2023-09-16T16:33:33.439Z,92019.31
2023-09-16T16:36:00.236Z,92018.47
2023-09-16T16:38:28.535Z,92018.78
2023-09-16T16:40:57.103Z,92024.97
2023-09-16T16:43:23.956Z,92023.47
2023-09-16T16:45:50.713Z,92017.28
2023-09-16T16:48:18.850Z,92014.75
2023-09-16T16:50:45.766Z,92016.16
2023-09-16T16:53:13.308Z,92019.34
2023-09-16T16:55:40.430Z,92018.00
2023-09-16T16:58:07.816Z,92017.63
2023-09-16T17:00:34.787Z,92020.94
2023-09-16T17:03:01.675Z,92017.03
2023-09-16T17:05:28.554Z,92018.97
2023-09-16T17:07:58.235Z,92021.09
2023-09-16T17:10:25.005Z,92030.88
2023-09-16T17:12:51.926Z,92032.50
2023-09-16T17:15:19.612Z,92041.91
2023-09-16T17:17:46.915Z,92049.53
2023-09-16T17:20:14.933Z,92053.50
2023-09-16T17:22:44.203Z,92060.66
2023-09-16T17:25:10.979Z,92065.09
2023-09-16T17:27:40.839Z,92068.94
2023-09-16T17:30:09.821Z,92077.53
2023-09-16T17:32:36.913Z,92087.53
2023-09-16T17:35:05.420Z,92081.00
2023-09-16T17:37:33.498Z,92097.38
2023-09-16T17:40:00.498Z,92101.16
2023-09-16T17:42:27.938Z,92104.38
2023-09-16T17:44:54.756Z,92106.66
2023-09-16T17:47:21.490Z,92108.88
2023-09-16T17:49:48.303Z,92118.53
2023-09-16T17:52:15.168Z,92115.06
2023-09-16T17:54:41.941Z,92115.06
2023-09-16T17:57:08.683Z,92123.66
2023-09-16T17:59:35.542Z,92111.44
2023-09-16T18:02:02.363Z,92126.81
2023-09-16T18:04:29.233Z,92121.19
2023-09-16T18:06:55.999Z,92129.84
2023-09-16T18:09:22.725Z,92131.88
2023-09-16T18:11:50.422Z,92130.69
2023-09-16T18:14:17.763Z,92139.97
2023-09-16T18:16:44.682Z,92136.25
2023-09-16T18:19:12.198Z,92134.69
2023-09-16T18:21:39.170Z,92141.34
2023-09-16T18:24:07.057Z,92141.97
2023-09-16T18:26:33.844Z,92144.66
2023-09-16T18:29:00.555Z,92144.41
2023-09-16T18:31:27.436Z,92138.81
2023-09-16T18:33:54.364Z,92134.63
2023-09-16T18:36:21.118Z,92142.38
2023-09-16T18:38:48.132Z,92139.63
2023-09-16T18:41:15.233Z,92153.00
2023-09-16T18:43:41.939Z,92144.75
2023-09-16T18:46:08.648Z,92135.31
2023-09-16T18:48:35.508Z,92138.59
2023-09-16T18:51:02.423Z,92146.25
2023-09-16T18:53:29.171Z,92151.81
2023-09-16T18:55:56.275Z,92149.34
2023-09-16T18:58:23.110Z,92146.47
2023-09-16T19:00:49.926Z,92145.63
2023-09-16T19:03:16.857Z,92140.72
2023-09-16T19:05:43.771Z,92146.97
2023-09-16T19:08:10.564Z,92145.94
2023-09-16T19:10:39.266Z,92139.56
2023-09-16T19:13:07.469Z,92147.75
2023-09-16T19:15:34.413Z,92147.00
2023-09-16T19:18:01.105Z,92148.09
2023-09-16T19:20:27.840Z,92140.75
2023-09-16T19:22:54.645Z,92135.19
2023-09-16T19:25:21.485Z,92128.94
2023-09-16T19:27:48.150Z,92124.97
2023-09-16T19:30:14.887Z,92126.94
2023-09-16T19:32:41.629Z,92131.56
2023-09-16T19:35:08.734Z,92131.63
2023-09-16T19:37:35.420Z,92124.78
2023-09-16T19:40:02.795Z,92138.09
2023-09-16T19:42:29.694Z,92143.16
2023-09-16T19:44:56.431Z,92144.94
2023-09-16T19:47:25.498Z,92136.81
2023-09-16T19:49:53.317Z,92134.66
2023-09-16T19:52:20.738Z,92139.38
2023-09-16T19:54:47.631Z,92137.41
2023-09-16T19:57:14.430Z,92134.72
2023-09-16T19:59:41.274Z,92130.97
2023-09-16T20:02:08.172Z,92136.56
2023-09-16T20:04:35.278Z,92139.44
2023-09-16T20:07:02.229Z,92149.88
2023-09-16T20:09:29.219Z,92151.13
2023-09-16T20:11:55.952Z,92132.28
2023-09-16T20:14:22.614Z,92138.09
2023-09-16T20:16:49.541Z,92140.78
2023-09-16T20:19:21.812Z,92151.22
2023-09-16T20:21:50.823Z,92144.63
2023-09-16T20:24:17.583Z,92150.38
2023-09-16T20:26:44.314Z,92148.91
2023-09-16T20:29:11.071Z,92136.63
2023-09-16T20:31:38.130Z,92131.06
2023-09-16T20:34:11.706Z,92124.22
2023-09-16T20:36:42.646Z,92136.50
2023-09-16T20:39:09.494Z,92137.72
2023-09-16T20:41:36.229Z,92136.16
2023-09-16T20:44:04.295Z,92140.16
2023-09-16T20:46:31.419Z,92139.94
2023-09-16T20:48:58.227Z,92143.22
2023-09-16T20:51:25.110Z,92148.31
2023-09-16T20:53:52.196Z,92146.81
2023-09-16T20:56:18.968Z,92147.34
2023-09-16T20:58:45.709Z,92142.53
2023-09-16T21:01:13.037Z,92138.00
2023-09-16T21:03:40.730Z,92133.63
2023-09-16T21:06:07.554Z,92142.50
2023-09-16T21:08:34.318Z,92138.88
2023-09-16T21:11:01.008Z,92137.16
2023-09-16T21:13:27.767Z,92149.34
2023-09-16T21:15:54.594Z,92147.56
2023-09-16T21:18:22.068Z,92142.38
2023-09-16T21:20:48.834Z,92144.03
2023-09-16T21:23:15.582Z,92133.47
2023-09-16T21:25:42.573Z,92140.75
2023-09-16T21:28:09.287Z,92127.75
2023-09-16T21:30:36.064Z,92134.16
2023-09-16T21:33:04.090Z,92124.97
2023-09-16T21:35:30.999Z,92122.31
2023-09-16T21:37:57.779Z,92124.91
2023-09-16T21:40:25.832Z,92126.41
2023-09-16T21:42:53.177Z,92119.91
2023-09-16T21:45:19.994Z,92124.00
2023-09-16T21:47:46.846Z,92130.53
2023-09-16T21:50:13.567Z,92138.94
2023-09-16T21:52:40.374Z,92139.00
2023-09-16T21:55:07.768Z,92144.03
2023-09-16T21:57:34.558Z,92147.50
2023-09-16T22:00:01.810Z,92149.59
2023-09-16T22:02:28.733Z,92153.59
2023-09-16T22:04:55.624Z,92167.63
2023-09-16T22:07:22.382Z,92156.22
2023-09-16T22:09:49.270Z,92168.88
2023-09-16T22:12:15.913Z,92162.03
2023-09-16T22:14:42.625Z,92167.13
2023-09-16T22:17:09.329Z,92166.28
2023-09-16T22:19:36.110Z,92172.34
2023-09-16T22:22:02.940Z,92172.66
2023-09-16T22:24:29.615Z,92168.41
2023-09-16T22:26:58.298Z,92167.13
2023-09-16T22:29:25.121Z,92153.00
2023-09-16T22:31:51.912Z,92156.50
2023-09-16T22:34:18.747Z,92161.84
2023-09-16T22:36:45.510Z,92160.84
2023-09-16T22:39:12.307Z,92156.84
2023-09-16T22:41:39.144Z,92163.81
2023-09-16T22:44:07.223Z,92164.00
2023-09-16T22:46:37.033Z,92172.88
2023-09-16T22:49:04.337Z,92169.81
2023-09-16T22:51:31.437Z,92173.88
2023-09-16T22:53:58.316Z,92176.47
2023-09-16T22:56:24.977Z,92173.16
2023-09-16T22:58:51.898Z,92176.03
2023-09-16T23:01:19.273Z,92182.97
2023-09-16T23:03:46.152Z,92184.94
2023-09-16T23:06:12.839Z,92177.63
2023-09-16T23:08:39.812Z,92179.28
2023-09-16T23:11:06.615Z,92181.09
2023-09-16T23:13:34.325Z,92181.78
2023-09-16T23:16:01.082Z,92178.47
2023-09-16T23:18:27.914Z,92183.31
2023-09-16T23:20:58.351Z,92179.69
2023-09-16T23:23:25.851Z,92180.44
2023-09-16T23:25:53.422Z,92177.34
2023-09-16T23:28:20.219Z,92177.22
2023-09-16T23:30:46.966Z,92167.84
2023-09-16T23:33:15.789Z,92172.03
2023-09-16T23:35:42.588Z,92171.84
2023-09-16T23:38:09.412Z,92171.31
2023-09-16T23:40:36.689Z,92166.75
2023-09-16T23:43:04.492Z,92172.72
2023-09-16T23:45:31.183Z,92172.16
2023-09-16T23:47:57.937Z,92170.31
2023-09-16T23:50:24.591Z,92169.97
2023-09-16T23:52:51.343Z,92172.28
2023-09-16T23:55:18.172Z,92161.41
2023-09-16T23:57:44.898Z,92154.75
